createdAt,value
2019-05-05T00:01:42.064Z,48.80
2019-05-05T00:04:19.502Z,48.78
2019-05-05T00:06:49.012Z,48.56
2019-05-05T00:09:18.470Z,47.66
2019-05-05T00:12:09.805Z,48.44
2019-05-05T00:14:58.340Z,48.22
2019-05-05T00:17:28.909Z,48.34
2019-05-05T00:19:58.863Z,47.80
2019-05-05T00:22:28.345Z,47.86
2019-05-05T00:24:57.871Z,47.00
2019-05-05T00:27:27.407Z,48.61
2019-05-05T00:29:56.944Z,47.17
2019-05-05T00:32:26.526Z,48.34
2019-05-05T00:34:56.051Z,47.54
2019-05-05T00:37:25.838Z,48.22
2019-05-05T00:39:55.360Z,48.81
2019-05-05T00:42:25.114Z,47.85
2019-05-05T00:44:55.023Z,48.59
2019-05-05T00:47:41.954Z,48.27
2019-05-05T00:50:14.574Z,47.71
2019-05-05T00:52:44.606Z,48.01
2019-05-05T00:55:15.146Z,48.84
2019-05-05T00:57:45.449Z,48.34
2019-05-05T01:00:24.785Z,48.40
2019-05-05T01:02:54.515Z,48.11
2019-05-05T01:05:36.904Z,47.97
2019-05-05T01:08:10.639Z,47.61
2019-05-05T01:10:40.245Z,48.10
2019-05-05T01:13:09.917Z,48.35
2019-05-05T01:15:39.500Z,46.64
2019-05-05T01:18:09.074Z,47.91
2019-05-05T01:20:38.683Z,47.68
2019-05-05T01:23:08.257Z,47.79
2019-05-05T01:25:37.894Z,47.83
2019-05-05T01:28:07.672Z,47.74
2019-05-05T01:30:39.644Z,47.91
2019-05-05T01:33:28.309Z,47.98
2019-05-05T01:35:58.014Z,47.73
2019-05-05T01:38:34.282Z,47.19
2019-05-05T01:41:09.612Z,48.11
2019-05-05T01:43:39.175Z,47.55
2019-05-05T01:46:08.798Z,47.75
2019-05-05T01:48:38.491Z,47.49
2019-05-05T01:51:08.098Z,47.64
2019-05-05T01:53:37.617Z,46.88
2019-05-05T01:56:07.269Z,47.65
2019-05-05T01:58:36.867Z,45.94
2019-05-05T02:01:06.508Z,47.54
2019-05-05T02:03:36.238Z,47.39
2019-05-05T02:06:05.848Z,47.38
2019-05-05T02:08:35.434Z,47.51
2019-05-05T02:11:05.341Z,47.31
2019-05-05T02:13:34.953Z,47.38
2019-05-05T02:16:04.841Z,47.43
2019-05-05T02:18:34.726Z,47.34
2019-05-05T02:21:06.643Z,47.25
2019-05-05T02:23:37.243Z,47.20
2019-05-05T02:26:08.020Z,47.03
2019-05-05T02:28:46.968Z,47.05
2019-05-05T02:31:25.910Z,47.17
2019-05-05T02:33:56.786Z,47.17
2019-05-05T02:36:26.742Z,47.04
2019-05-05T02:38:56.846Z,47.16
2019-05-05T02:41:26.555Z,46.82
2019-05-05T02:43:56.624Z,47.05
2019-05-05T02:46:35.596Z,46.69
2019-05-05T02:49:05.705Z,47.04
2019-05-05T02:51:35.756Z,46.90
2019-05-05T02:54:05.861Z,46.91
2019-05-05T02:56:43.929Z,47.18
2019-05-05T02:59:18.423Z,47.25
2019-05-05T03:01:53.941Z,46.96
2019-05-05T03:04:24.510Z,47.01
2019-05-05T03:06:55.642Z,47.09
2019-05-05T03:09:26.388Z,47.34
2019-05-05T03:11:57.653Z,47.17
2019-05-05T03:14:27.990Z,47.40
2019-05-05T03:16:57.671Z,47.00
2019-05-05T03:19:27.414Z,46.38
2019-05-05T03:21:57.027Z,45.53
2019-05-05T03:24:26.618Z,46.63
2019-05-05T03:26:56.495Z,47.89
2019-05-05T03:29:26.683Z,47.95
2019-05-05T03:31:57.457Z,47.60
2019-05-05T03:34:27.641Z,47.85
2019-05-05T03:36:57.353Z,48.43
2019-05-05T03:39:28.560Z,46.75
2019-05-05T03:42:05.041Z,46.98
2019-05-05T03:44:41.301Z,47.49
2019-05-05T03:47:11.071Z,48.34
2019-05-05T03:49:40.646Z,46.63
2019-05-05T03:52:10.283Z,46.60
2019-05-05T03:54:39.785Z,47.40
2019-05-05T03:57:09.383Z,46.65
2019-05-05T03:59:41.164Z,48.20
2019-05-05T04:02:29.824Z,48.10
2019-05-05T04:05:05.376Z,47.34
2019-05-05T04:07:34.996Z,46.11
2019-05-05T04:10:04.824Z,48.29
2019-05-05T04:12:34.701Z,47.43
2019-05-05T04:15:05.032Z,46.63
2019-05-05T04:17:58.056Z,48.88
2019-05-05T04:20:33.850Z,45.70
2019-05-05T04:23:03.860Z,49.46
2019-05-05T04:25:34.977Z,48.67
2019-05-05T04:28:04.682Z,48.46
2019-05-05T04:30:34.262Z,46.69
2019-05-05T04:33:05.162Z,49.05
2019-05-05T04:35:35.259Z,48.37
2019-05-05T04:38:05.624Z,48.30
2019-05-05T04:40:35.269Z,48.82
2019-05-05T04:43:04.857Z,48.48
2019-05-05T04:45:34.806Z,48.45
2019-05-05T04:48:14.928Z,48.38
2019-05-05T04:50:56.086Z,47.94
2019-05-05T04:53:44.590Z,47.80
2019-05-05T04:56:15.378Z,48.02
2019-05-05T04:58:44.883Z,47.68
2019-05-05T05:01:14.394Z,47.50
2019-05-05T05:04:09.028Z,47.75
2019-05-05T05:06:45.183Z,47.75
2019-05-05T05:09:14.792Z,47.57
2019-05-05T05:11:44.401Z,47.67
2019-05-05T05:14:14.437Z,47.46
2019-05-05T05:16:44.243Z,47.42
2019-05-05T05:19:13.949Z,47.03
2019-05-05T05:21:43.770Z,47.61
2019-05-05T05:24:14.665Z,48.60
2019-05-05T05:26:44.359Z,47.00
2019-05-05T05:29:15.069Z,49.03
2019-05-05T05:31:45.377Z,47.57
2019-05-05T05:34:15.062Z,47.59
2019-05-05T05:36:44.584Z,47.51
2019-05-05T05:39:33.655Z,47.44
2019-05-05T05:42:04.574Z,47.84
2019-05-05T05:44:51.003Z,48.92
2019-05-05T05:47:25.406Z,48.88
2019-05-05T05:50:06.605Z,48.94
2019-05-05T05:52:36.118Z,48.89
2019-05-05T05:55:06.008Z,47.83
2019-05-05T05:57:35.547Z,47.91
2019-05-05T06:00:05.876Z,48.95
2019-05-05T06:02:35.399Z,47.89
2019-05-05T06:05:05.511Z,48.11
2019-05-05T06:07:35.091Z,48.15
2019-05-05T06:10:05.213Z,47.72
2019-05-05T06:12:34.796Z,47.95
2019-05-05T06:15:04.628Z,47.52
2019-05-05T06:17:34.443Z,47.81
2019-05-05T06:20:04.742Z,47.39
2019-05-05T06:22:34.563Z,47.64
2019-05-05T06:25:06.605Z,47.56
2019-05-05T06:27:35.447Z,47.90
2019-05-05T06:30:05.452Z,47.50
2019-05-05T06:32:35.061Z,47.81
2019-05-05T06:35:05.306Z,48.41
2019-05-05T06:37:34.859Z,47.51
2019-05-05T06:40:06.294Z,47.45
2019-05-05T06:42:43.527Z,47.63
2019-05-05T06:45:23.893Z,47.78
2019-05-05T06:47:53.764Z,48.14
2019-05-05T06:50:24.291Z,47.61
2019-05-05T06:52:53.944Z,48.21
2019-05-05T06:55:24.532Z,47.58
2019-05-05T06:57:54.052Z,47.50
2019-05-05T07:00:24.153Z,47.35
2019-05-05T07:02:54.157Z,47.09
2019-05-05T07:05:23.798Z,47.40
2019-05-05T07:07:53.783Z,47.49
2019-05-05T07:10:24.442Z,47.58
2019-05-05T07:12:54.433Z,47.67
2019-05-05T07:15:23.969Z,47.04
2019-05-05T07:17:53.635Z,47.05
2019-05-05T07:20:24.119Z,47.10
2019-05-05T07:22:59.778Z,47.24
2019-05-05T07:25:24.885Z,47.06
2019-05-05T07:27:54.814Z,46.91
2019-05-05T07:30:24.418Z,47.05
2019-05-05T07:32:57.374Z,47.02
2019-05-05T07:35:37.429Z,47.41
2019-05-05T07:38:06.985Z,47.51
2019-05-05T07:40:36.578Z,47.04
2019-05-05T07:43:06.132Z,46.64
2019-05-05T07:45:36.978Z,46.50
2019-05-05T07:48:06.513Z,46.67
2019-05-05T07:50:36.361Z,46.35
2019-05-05T07:53:14.618Z,46.61
2019-05-05T07:55:37.508Z,47.55
2019-05-05T07:58:07.019Z,45.95
2019-05-05T08:00:36.668Z,47.08
2019-05-05T08:03:06.255Z,47.16
2019-05-05T08:05:37.827Z,47.06
2019-05-05T08:08:07.112Z,45.41
2019-05-05T08:10:36.778Z,46.38
2019-05-05T08:13:06.289Z,46.70
2019-05-05T08:15:36.077Z,46.05
2019-05-05T08:18:18.189Z,45.27
2019-05-05T08:20:50.278Z,45.23
2019-05-05T08:23:31.965Z,45.62
2019-05-05T08:26:07.248Z,45.97
2019-05-05T08:28:44.907Z,45.08
2019-05-05T08:31:27.971Z,45.03
2019-05-05T08:33:57.484Z,44.72
2019-05-05T08:36:27.158Z,44.71
2019-05-05T08:38:56.841Z,44.96
2019-05-05T08:41:26.334Z,44.76
2019-05-05T08:43:55.971Z,45.05
2019-05-05T08:46:25.633Z,45.02
2019-05-05T08:48:55.318Z,45.06
2019-05-05T08:51:24.831Z,44.62
2019-05-05T08:53:54.638Z,44.47
2019-05-05T08:56:24.393Z,44.14
2019-05-05T08:58:54.558Z,44.50
2019-05-05T09:01:24.249Z,44.55
2019-05-05T09:03:53.860Z,44.23
2019-05-05T09:06:24.167Z,44.53
2019-05-05T09:08:54.756Z,45.30
2019-05-05T09:11:24.675Z,44.37
2019-05-05T09:13:54.219Z,44.41
2019-05-05T09:16:24.240Z,44.54
2019-05-05T09:18:59.812Z,44.35
2019-05-05T09:22:28.721Z,44.30
2019-05-05T09:25:48.502Z,45.08
2019-05-05T09:28:17.504Z,44.29
2019-05-05T09:30:47.983Z,44.31
2019-05-05T09:33:18.395Z,44.49
2019-05-05T09:35:48.393Z,44.59
2019-05-05T09:38:18.497Z,44.47
2019-05-05T09:40:48.138Z,44.46
2019-05-05T09:43:17.810Z,44.47
2019-05-05T09:45:47.413Z,44.23
2019-05-05T09:48:17.157Z,44.79
2019-05-05T09:51:28.774Z,44.54
2019-05-05T09:54:11.014Z,45.29
2019-05-05T09:56:29.737Z,44.59
2019-05-05T09:58:59.255Z,45.13
2019-05-05T10:01:28.964Z,44.31
2019-05-05T10:04:08.311Z,44.03
2019-05-05T10:06:38.709Z,44.27
2019-05-05T10:09:09.457Z,44.25
2019-05-05T10:11:39.421Z,44.73
2019-05-05T10:14:09.375Z,44.48
2019-05-05T10:16:39.112Z,44.61
2019-05-05T10:19:08.810Z,44.30
2019-05-05T10:21:38.411Z,44.70
2019-05-05T10:24:27.775Z,44.27
2019-05-05T10:26:46.304Z,44.50
2019-05-05T10:29:15.885Z,43.91
2019-05-05T10:31:47.132Z,44.22
2019-05-05T10:34:17.926Z,43.55
2019-05-05T10:36:47.597Z,43.46
2019-05-05T10:39:33.459Z,43.49
2019-05-05T10:42:04.085Z,43.76
2019-05-05T10:44:34.165Z,43.13
2019-05-05T10:47:04.609Z,43.15
2019-05-05T10:49:34.333Z,43.47
2019-05-05T10:52:04.009Z,43.57
2019-05-05T10:54:43.191Z,43.58
2019-05-05T10:57:04.966Z,43.42
2019-05-05T10:59:34.606Z,44.10
2019-05-05T11:02:05.091Z,44.36
2019-05-05T11:04:34.929Z,43.23
2019-05-05T11:07:04.649Z,43.06
2019-05-05T11:09:34.660Z,44.42
2019-05-05T11:12:04.274Z,44.38
2019-05-05T11:14:33.893Z,43.85
2019-05-05T11:17:04.259Z,42.21
2019-05-05T11:19:34.010Z,42.95
2019-05-05T11:22:03.724Z,43.40
2019-05-05T11:24:34.580Z,43.16
2019-05-05T11:27:04.611Z,43.33
2019-05-05T11:29:35.731Z,43.26
2019-05-05T11:32:10.193Z,43.21
2019-05-05T11:34:39.723Z,43.20
2019-05-05T11:37:11.971Z,43.54
2019-05-05T11:39:41.571Z,43.21
2019-05-05T11:42:11.101Z,42.90
2019-05-05T11:44:40.644Z,43.04
2019-05-05T11:47:10.237Z,42.95
2019-05-05T11:49:39.919Z,43.18
2019-05-05T11:52:09.441Z,42.96
2019-05-05T11:54:39.018Z,43.00
2019-05-05T11:57:08.657Z,43.10
2019-05-05T11:59:38.158Z,43.65
2019-05-05T12:02:07.719Z,43.87
2019-05-05T12:04:37.390Z,44.01
2019-05-05T12:07:07.031Z,42.80
2019-05-05T12:09:45.910Z,43.53
2019-05-05T12:12:15.462Z,43.93
2019-05-05T12:14:45.361Z,42.62
2019-05-05T12:17:18.388Z,42.65
2019-05-05T12:19:48.560Z,42.73
2019-05-05T12:22:18.334Z,42.37
2019-05-05T12:24:49.436Z,42.15
2019-05-05T12:27:27.952Z,42.27
2019-05-05T12:30:06.721Z,42.45
2019-05-05T12:32:36.360Z,42.15
2019-05-05T12:35:06.080Z,42.16
2019-05-05T12:37:35.736Z,42.61
2019-05-05T12:40:07.652Z,41.35
2019-05-05T12:42:37.222Z,42.38
2019-05-05T12:45:09.398Z,41.93
2019-05-05T12:47:56.433Z,41.90
2019-05-05T12:50:26.124Z,41.70
2019-05-05T12:52:55.741Z,40.11
2019-05-05T12:55:38.337Z,40.93
2019-05-05T12:57:56.777Z,41.39
2019-05-05T13:00:26.359Z,41.33
2019-05-05T13:02:56.283Z,41.50
2019-05-05T13:05:25.867Z,41.24
2019-05-05T13:07:55.396Z,38.94
2019-05-05T13:10:25.599Z,41.43
2019-05-05T13:12:55.283Z,41.51
2019-05-05T13:15:25.127Z,41.54
2019-05-05T13:17:54.662Z,41.61
2019-05-05T13:20:39.155Z,41.61
2019-05-05T13:23:26.513Z,41.50
2019-05-05T13:26:11.932Z,41.71
2019-05-05T13:28:43.636Z,41.78
2019-05-05T13:31:13.978Z,41.88
2019-05-05T13:33:44.270Z,41.87
2019-05-05T13:36:14.187Z,41.93
2019-05-05T13:38:43.982Z,42.01
2019-05-05T13:41:13.568Z,42.04
2019-05-05T13:43:43.244Z,41.93
2019-05-05T13:46:17.578Z,41.94
2019-05-05T13:48:47.189Z,41.96
2019-05-05T13:51:17.042Z,42.04
2019-05-05T13:53:46.683Z,42.03
2019-05-05T13:56:16.257Z,41.94
2019-05-05T13:58:45.891Z,41.91
2019-05-05T14:01:15.479Z,41.86
2019-05-05T14:03:45.187Z,42.01
2019-05-05T14:06:14.873Z,41.73
2019-05-05T14:08:44.948Z,41.71
2019-05-05T14:11:14.643Z,41.66
2019-05-05T14:13:45.639Z,41.43
2019-05-05T14:16:15.511Z,41.60
2019-05-05T14:18:45.059Z,41.50
2019-05-05T14:21:14.596Z,41.37
2019-05-05T14:24:21.236Z,41.49
2019-05-05T14:26:50.842Z,41.41
2019-05-05T14:29:41.294Z,41.40
2019-05-05T14:32:13.556Z,41.53
2019-05-05T14:34:46.232Z,41.39
2019-05-05T14:37:25.610Z,41.32
2019-05-05T14:39:55.285Z,41.40
2019-05-05T14:42:24.935Z,41.17
2019-05-05T14:44:54.736Z,41.65
2019-05-05T14:47:24.641Z,41.44
2019-05-05T14:49:54.358Z,41.12
2019-05-05T14:52:24.719Z,41.23
2019-05-05T14:54:54.633Z,41.22
2019-05-05T14:57:28.051Z,39.55
2019-05-05T14:59:57.698Z,40.46
2019-05-05T15:02:27.263Z,40.55
2019-05-05T15:04:59.472Z,40.89
2019-05-05T15:07:54.258Z,40.51
2019-05-05T15:10:43.933Z,40.31
2019-05-05T15:13:14.766Z,40.21
2019-05-05T15:15:44.363Z,41.11
2019-05-05T15:18:14.662Z,40.74
2019-05-05T15:20:44.308Z,40.08
2019-05-05T15:23:13.877Z,39.58
2019-05-05T15:25:44.650Z,39.87
2019-05-05T15:28:14.264Z,39.68
2019-05-05T15:30:44.201Z,39.82
2019-05-05T15:33:13.961Z,39.72
2019-05-05T15:35:46.438Z,39.67
2019-05-05T15:38:14.963Z,39.56
2019-05-05T15:40:47.918Z,39.69
2019-05-05T15:43:16.039Z,39.66
2019-05-05T15:45:45.894Z,39.65
2019-05-05T15:48:15.521Z,39.17
2019-05-05T15:50:45.241Z,39.66
2019-05-05T15:53:14.952Z,39.71
2019-05-05T15:55:44.735Z,39.74
2019-05-05T15:58:14.451Z,39.78
2019-05-05T16:00:44.369Z,39.81
2019-05-05T16:03:14.200Z,39.88
2019-05-05T16:05:43.842Z,39.93
2019-05-05T16:08:14.135Z,39.98
2019-05-05T16:10:46.512Z,40.03
2019-05-05T16:13:15.248Z,40.09
2019-05-05T16:16:01.204Z,40.14
2019-05-05T16:18:48.635Z,40.19
2019-05-05T16:21:54.360Z,40.20
2019-05-05T16:24:26.175Z,40.38
2019-05-05T16:26:55.766Z,40.44
2019-05-05T16:29:25.388Z,40.55
2019-05-05T16:31:55.102Z,40.60
2019-05-05T16:34:24.722Z,40.56
2019-05-05T16:36:56.936Z,40.51
2019-05-05T16:39:25.846Z,40.55
2019-05-05T16:41:55.498Z,40.42
2019-05-05T16:44:25.168Z,40.59
2019-05-05T16:46:57.290Z,40.50
2019-05-05T16:49:26.026Z,40.48
2019-05-05T16:52:03.915Z,40.40
2019-05-05T16:54:38.056Z,40.07
2019-05-05T16:57:07.624Z,40.45
2019-05-05T16:59:37.148Z,40.41
2019-05-05T17:02:06.808Z,40.36
2019-05-05T17:04:36.277Z,40.40
2019-05-05T17:07:06.003Z,40.44
2019-05-05T17:09:35.475Z,40.40
2019-05-05T17:12:10.859Z,40.38
2019-05-05T17:15:06.042Z,40.67
2019-05-05T17:17:44.655Z,40.70
2019-05-05T17:20:16.986Z,40.77
2019-05-05T17:23:00.256Z,40.81
2019-05-05T17:25:29.872Z,40.83
2019-05-05T17:27:59.477Z,40.84
2019-05-05T17:30:29.394Z,40.82
2019-05-05T17:32:59.264Z,40.83
2019-05-05T17:35:28.845Z,40.42
2019-05-05T17:38:08.039Z,40.87
2019-05-05T17:40:54.952Z,40.96
2019-05-05T17:43:47.978Z,40.95
2019-05-05T17:46:27.960Z,40.82
2019-05-05T17:49:28.753Z,40.92
2019-05-05T17:52:06.292Z,40.94
2019-05-05T17:54:47.780Z,40.95
2019-05-05T17:57:17.328Z,40.80
2019-05-05T17:59:48.075Z,40.99
2019-05-05T18:02:17.600Z,40.80
2019-05-05T18:04:47.303Z,41.12
2019-05-05T18:07:35.896Z,41.18
2019-05-05T18:10:23.994Z,41.12
2019-05-05T18:13:14.244Z,41.45
2019-05-05T18:15:58.819Z,39.47
2019-05-05T18:18:28.498Z,38.04
2019-05-05T18:20:57.989Z,36.69
2019-05-05T18:23:27.670Z,37.19
2019-05-05T18:25:57.862Z,35.43
2019-05-05T18:28:27.453Z,40.91
2019-05-05T18:30:56.954Z,34.99
2019-05-05T18:33:26.496Z,36.18
2019-05-05T18:35:56.053Z,37.40
2019-05-05T18:38:25.779Z,39.21
2019-05-05T18:40:57.037Z,37.29
2019-05-05T18:43:36.091Z,34.95
2019-05-05T18:46:05.720Z,35.13
2019-05-05T18:48:35.419Z,35.84
2019-05-05T18:51:05.163Z,35.15
2019-05-05T18:53:34.794Z,36.88
2019-05-05T18:56:04.413Z,35.14
2019-05-05T18:58:34.836Z,35.05
2019-05-05T19:01:26.884Z,35.14
2019-05-05T19:04:13.949Z,40.27
2019-05-05T19:06:49.032Z,36.79
2019-05-05T19:09:20.829Z,37.46
2019-05-05T19:11:50.435Z,40.50
2019-05-05T19:14:20.043Z,41.70
2019-05-05T19:16:49.606Z,42.12
2019-05-05T19:19:19.320Z,42.37
2019-05-05T19:21:54.713Z,41.54
2019-05-05T19:24:24.392Z,42.83
2019-05-05T19:26:55.915Z,42.05
2019-05-05T19:29:25.302Z,42.76
2019-05-05T19:31:54.893Z,42.66
2019-05-05T19:34:24.749Z,41.27
2019-05-05T19:36:54.743Z,42.96
2019-05-05T19:39:24.464Z,42.93
2019-05-05T19:41:54.570Z,42.76
2019-05-05T19:44:26.122Z,42.79
2019-05-05T19:47:13.775Z,42.85
2019-05-05T19:49:46.839Z,42.97
2019-05-05T19:52:16.449Z,41.38
2019-05-05T19:54:47.613Z,43.15
2019-05-05T19:57:17.427Z,43.21
2019-05-05T19:59:46.999Z,42.56
2019-05-05T20:02:16.606Z,43.11
2019-05-05T20:04:46.201Z,43.15
2019-05-05T20:07:15.783Z,42.32
2019-05-05T20:09:45.349Z,43.19
2019-05-05T20:12:15.024Z,43.33
2019-05-05T20:14:44.605Z,43.23
2019-05-05T20:17:21.035Z,43.30
2019-05-05T20:19:50.983Z,43.03
2019-05-05T20:22:20.803Z,43.28
2019-05-05T20:24:50.409Z,43.07
2019-05-05T20:27:20.023Z,43.46
2019-05-05T20:29:49.672Z,43.11
2019-05-05T20:32:24.967Z,43.51
2019-05-05T20:35:14.834Z,43.60
2019-05-05T20:37:50.717Z,43.66
2019-05-05T20:40:24.447Z,43.56
2019-05-05T20:42:54.401Z,43.83
2019-05-05T20:45:26.762Z,43.79
2019-05-05T20:47:56.376Z,43.74
2019-05-05T20:50:25.977Z,43.80
2019-05-05T20:52:55.535Z,43.94
2019-05-05T20:55:25.990Z,43.21
2019-05-05T20:57:55.777Z,44.01
2019-05-05T21:00:25.385Z,43.23
2019-05-05T21:02:54.988Z,43.88
2019-05-05T21:05:24.651Z,44.24
2019-05-05T21:07:54.265Z,44.21
2019-05-05T21:10:24.282Z,43.74
2019-05-05T21:12:54.518Z,44.25
2019-05-05T21:15:24.812Z,44.15
2019-05-05T21:17:54.581Z,43.71
2019-05-05T21:20:24.269Z,44.38
2019-05-05T21:23:04.648Z,44.40
2019-05-05T21:25:36.641Z,44.51
2019-05-05T21:28:06.246Z,44.48
2019-05-05T21:30:35.835Z,43.96
2019-05-05T21:33:05.965Z,44.60
2019-05-05T21:35:35.502Z,44.60
2019-05-05T21:38:05.283Z,44.24
2019-05-05T21:40:34.903Z,44.72
2019-05-05T21:43:05.152Z,44.72
2019-05-05T21:45:35.006Z,44.69
2019-05-05T21:48:04.670Z,44.71
2019-05-05T21:50:39.650Z,44.56
2019-05-05T21:53:17.363Z,44.18
2019-05-05T21:56:05.945Z,44.61
2019-05-05T21:58:43.974Z,44.79
2019-05-05T22:01:18.970Z,44.63
2019-05-05T22:03:48.575Z,44.72
2019-05-05T22:06:18.185Z,44.91
2019-05-05T22:08:47.842Z,44.87
2019-05-05T22:11:17.525Z,44.98
2019-05-05T22:13:47.209Z,44.27
2019-05-05T22:16:16.773Z,43.93
2019-05-05T22:18:46.843Z,45.13
2019-05-05T22:21:31.284Z,44.80
2019-05-05T22:24:15.959Z,45.06
2019-05-05T22:26:45.898Z,44.93
2019-05-05T22:29:17.164Z,43.94
2019-05-05T22:31:48.361Z,41.44
2019-05-05T22:34:17.974Z,40.59
2019-05-05T22:36:47.660Z,39.63
2019-05-05T22:39:17.317Z,39.50
2019-05-05T22:41:46.878Z,39.57
2019-05-05T22:44:16.502Z,39.40
2019-05-05T22:46:46.430Z,40.06
2019-05-05T22:49:16.048Z,39.66
2019-05-05T22:51:45.751Z,39.65
2019-05-05T22:54:15.462Z,39.73
2019-05-05T22:56:45.065Z,39.82
2019-05-05T22:59:14.891Z,40.61
2019-05-05T23:01:46.945Z,40.89
2019-05-05T23:04:31.592Z,41.16
2019-05-05T23:07:05.116Z,41.64
2019-05-05T23:09:34.837Z,42.35
2019-05-05T23:12:04.484Z,42.00
2019-05-05T23:14:34.395Z,42.17
2019-05-05T23:17:28.794Z,42.62
2019-05-05T23:20:16.420Z,43.34
2019-05-05T23:23:08.250Z,44.26
2019-05-05T23:25:40.885Z,43.70
2019-05-05T23:28:10.512Z,43.13
2019-05-05T23:30:41.982Z,43.56
2019-05-05T23:33:11.437Z,43.82
2019-05-05T23:35:43.700Z,43.31
2019-05-05T23:38:14.363Z,43.61
2019-05-05T23:40:44.015Z,43.63
2019-05-05T23:43:13.977Z,43.41
2019-05-05T23:45:44.831Z,43.55
2019-05-05T23:48:14.529Z,44.14
2019-05-05T23:50:44.578Z,43.45
2019-05-05T23:53:14.249Z,44.06
2019-05-05T23:55:44.120Z,47.63
2019-05-05T23:58:14.486Z,44.76
